Time;durP1;ratioP1;P1;durP2;ratioP2;P2;SDS_P1;SDS_P2;PMS_P1;PMS_P2;Temp;Humidity;BMP_temperature;BMP_pressure;BME280_temperature;BME280_humidity;BME280_pressure;Samples;Min_cycle;Max_cycle;Signal;HPM_P1;HPM_P2
2023/11/02 00:00:46;;;;;;;4.53;0.68;;;8.70;99.90;;;;;;5002785;28;20029;-80
2023/11/02 00:03:30;;;;;;;1.27;0.70;;;8.70;99.90;;;;;;5018239;28;20033;-79
2023/11/02 00:05:59;;;;;;;0.85;0.50;;;8.70;99.90;;;;;;5015146;28;20043;-79
2023/11/02 00:08:32;;;;;;;2.03;0.80;;;8.70;99.90;;;;;;5021988;28;20568;-79
2023/11/02 00:11:20;;;;;;;1.75;0.60;;;8.70;99.90;;;;;;5009582;28;20026;-79
2023/11/02 00:13:50;;;;;;;2.22;0.60;;;8.70;99.90;;;;;;5006260;28;20038;-79
2023/11/02 00:16:16;;;;;;;4.07;0.70;;;8.70;99.90;;;;;;5019467;28;20089;-77
2023/11/02 00:18:43;;;;;;;1.10;0.63;;;8.70;99.90;;;;;;5016163;28;20077;-80
2023/11/02 00:21:26;;;;;;;1.83;0.80;;;8.60;99.90;;;;;;5008428;28;20090;-80
2023/11/02 00:23:52;;;;;;;1.88;0.57;;;8.60;99.90;;;;;;5010754;28;20026;-78
2023/11/02 00:26:19;;;;;;;1.17;0.80;;;8.50;99.90;;;;;;5017634;28;20087;-79
2023/11/02 00:28:47;;;;;;;1.58;0.60;;;8.50;99.90;;;;;;5015558;28;20026;-79
2023/11/02 00:31:14;;;;;;;1.27;0.43;;;8.40;99.90;;;;;;5010087;28;20025;-80
2023/11/02 00:33:41;;;;;;;0.85;0.50;;;8.40;99.90;;;;;;5011340;28;20054;-79
2023/11/02 00:36:08;;;;;;;0.50;0.50;;;8.30;99.90;;;;;;5011637;28;20041;-80
2023/11/02 00:38:34;;;;;;;0.93;0.50;;;8.30;99.90;;;;;;5007477;28;20026;-80
2023/11/02 00:41:00;;;;;;;0.70;0.60;;;8.20;99.90;;;;;;4993368;28;20065;-80
2023/11/02 00:43:28;;;;;;;0.75;0.50;;;8.20;99.90;;;;;;5004819;28;20026;-80
2023/11/02 00:45:54;;;;;;;1.05;0.50;;;8.10;99.90;;;;;;5014137;28;20033;-79
2023/11/02 00:48:26;;;;;;;1.80;0.50;;;8.10;99.90;;;;;;5007158;28;20029;-81
2023/11/02 00:51:26;;;;;;;0.88;0.60;;;8.10;99.90;;;;;;5011762;28;20030;-81
2023/11/02 00:54:07;;;;;;;1.35;0.93;;;8.00;99.90;;;;;;5008427;28;20033;-79
2023/11/02 00:56:38;;;;;;;0.60;0.50;;;8.00;99.90;;;;;;5017640;28;20033;-78
2023/11/02 00:59:05;;;;;;;1.58;0.90;;;7.90;99.90;;;;;;5000084;28;20030;-80
2023/11/02 01:01:31;;;;;;;1.27;0.45;;;7.90;99.90;;;;;;5010194;28;20062;-80
2023/11/02 01:04:05;;;;;;;2.60;0.68;;;7.90;99.90;;;;;;5004154;28;20035;-78
2023/11/02 01:06:32;;;;;;;1.30;0.60;;;7.80;99.90;;;;;;5018276;28;20026;-81
2023/11/02 01:09:09;;;;;;;2.60;0.57;;;7.80;99.90;;;;;;5014735;28;20027;-80
2023/11/02 01:11:37;;;;;;;0.70;0.55;;;7.70;99.90;;;;;;5011131;28;20127;-79
2023/11/02 01:14:22;;;;;;;3.45;0.70;;;7.70;99.90;;;;;;5009185;28;20045;-78
2023/11/02 01:16:48;;;;;;;0.60;0.60;;;7.60;99.90;;;;;;5018013;28;20083;-78
2023/11/02 01:19:55;;;;;;;1.17;0.63;;;7.60;99.90;;;;;;5023187;28;20026;-80
2023/11/02 01:22:32;;;;;;;2.42;0.70;;;7.50;99.90;;;;;;5017516;28;20034;-79
2023/11/02 01:25:08;;;;;;;4.88;0.80;;;7.50;99.90;;;;;;5009960;28;20029;-79
2023/11/02 01:27:35;;;;;;;5.80;0.70;;;7.40;99.90;;;;;;5017842;28;20046;-81
2023/11/02 01:30:30;;;;;;;1.23;0.60;;;7.40;99.90;;;;;;5015148;28;20479;-79
2023/11/02 01:32:55;;;;;;;2.20;0.60;;;7.40;99.90;;;;;;5012574;28;20073;-80
2023/11/02 01:35:34;;;;;;;1.85;0.65;;;7.30;99.90;;;;;;5010953;28;20031;-80
2023/11/02 01:38:00;;;;;;;1.08;0.50;;;7.20;99.90;;;;;;5023842;28;20044;-79
2023/11/02 01:40:40;;;;;;;0.98;0.57;;;7.20;99.90;;;;;;5013487;28;20038;-79
2023/11/02 01:43:12;;;;;;;2.50;0.57;;;7.10;99.90;;;;;;4997114;28;20049;-79
2023/11/02 01:45:42;;;;;;;0.98;0.70;;;7.10;99.90;;;;;;5017961;28;20088;-80
2023/11/02 01:48:35;;;;;;;2.25;0.73;;;7.00;99.90;;;;;;5025925;28;20028;-80
2023/11/02 01:51:09;;;;;;;2.00;1.48;;;7.00;99.90;;;;;;5010248;28;20062;-79
2023/11/02 01:53:44;;;;;;;1.23;0.80;;;7.00;99.90;;;;;;5018175;28;20576;-78
2023/11/02 01:56:38;;;;;;;2.25;0.57;;;6.90;99.90;;;;;;5016955;28;20025;-79
2023/11/02 01:59:04;;;;;;;2.72;0.68;;;6.90;99.90;;;;;;5014540;28;20033;-79
2023/11/02 02:02:05;;;;;;;0.65;0.40;;;6.90;99.90;;;;;;5010565;28;20108;-79
2023/11/02 02:04:47;;;;;;;0.95;0.90;;;6.80;99.90;;;;;;5007731;28;20109;-80
2023/11/02 02:07:43;;;;;;;2.33;0.80;;;6.80;99.90;;;;;;5005232;28;20413;-79
2023/11/02 02:10:22;;;;;;;2.58;0.80;;;6.80;99.90;;;;;;4997589;28;20091;-78
2023/11/02 02:13:06;;;;;;;0.88;0.60;;;6.70;99.90;;;;;;5006010;28;20034;-80
2023/11/02 02:15:56;;;;;;;1.08;0.68;;;6.70;99.90;;;;;;5008925;28;20116;-79
2023/11/02 02:18:35;;;;;;;1.90;0.40;;;6.70;99.90;;;;;;5024602;28;20029;-80
2023/11/02 02:21:21;;;;;;;1.75;0.65;;;6.70;99.90;;;;;;4999926;28;20056;-80
2023/11/02 02:24:02;;;;;;;1.40;0.60;;;6.70;99.90;;;;;;5012653;28;20022;-79
2023/11/02 02:26:50;;;;;;;1.10;0.70;;;6.60;99.90;;;;;;5013467;28;20026;-80
2023/11/02 02:29:54;;;;;;;2.65;1.20;;;6.70;99.90;;;;;;5012314;28;20026;-79
2023/11/02 02:32:19;;;;;;;1.55;0.70;;;6.60;99.90;;;;;;5027866;28;20056;-80
2023/11/02 02:35:00;;;;;;;2.22;0.77;;;6.60;99.90;;;;;;5017169;28;20518;-79
2023/11/02 02:37:42;;;;;;;1.08;0.80;;;6.60;99.90;;;;;;5024594;28;20044;-79
2023/11/02 02:40:17;;;;;;;1.38;0.80;;;6.60;99.90;;;;;;5015180;28;20106;-77
2023/11/02 02:42:47;;;;;;;2.58;0.90;;;6.60;99.90;;;;;;5005400;28;20033;-80
2023/11/02 02:45:14;;;;;;;1.00;0.90;;;6.50;99.90;;;;;;5006032;28;20097;-78
2023/11/02 02:47:42;;;;;;;1.05;0.73;;;6.50;99.90;;;;;;5020563;28;20093;-80
2023/11/02 02:50:10;;;;;;;1.92;0.70;;;6.40;99.90;;;;;;5013520;28;20030;-79
2023/11/02 02:52:39;;;;;;;1.45;0.73;;;6.40;99.90;;;;;;5011179;28;20030;-79
2023/11/02 02:55:08;;;;;;;2.92;1.00;;;6.40;99.90;;;;;;5013299;28;20042;-79
2023/11/02 02:58:01;;;;;;;1.40;0.65;;;6.30;99.90;;;;;;5019050;28;20052;-80
2023/11/02 03:00:31;;;;;;;1.38;0.80;;;6.30;99.90;;;;;;5013284;28;20037;-79
2023/11/02 03:02:59;;;;;;;4.03;1.00;;;6.30;99.90;;;;;;5013871;28;20025;-81
2023/11/02 03:05:28;;;;;;;1.08;0.80;;;6.30;99.90;;;;;;5007782;28;20056;-80
2023/11/02 03:08:02;;;;;;;1.92;1.08;;;6.30;99.90;;;;;;5023402;28;20022;-79
2023/11/02 03:10:31;;;;;;;1.15;0.68;;;6.20;99.90;;;;;;5006656;28;20033;-80
2023/11/02 03:13:02;;;;;;;1.63;1.02;;;6.20;99.90;;;;;;5009606;28;20112;-80
2023/11/02 03:15:34;;;;;;;0.90;0.80;;;6.20;99.90;;;;;;5014205;28;21036;-80
2023/11/02 03:18:10;;;;;;;3.33;0.90;;;6.20;99.90;;;;;;5015097;28;20505;-79
2023/11/02 03:20:35;;;;;;;3.08;1.20;;;6.30;99.90;;;;;;5009679;28;20063;-81
2023/11/02 03:23:09;;;;;;;2.05;1.08;;;6.20;99.90;;;;;;5012419;28;20364;-81
2023/11/02 03:26:05;;;;;;;2.42;1.40;;;6.20;99.90;;;;;;5011900;28;20048;-78
2023/11/02 03:28:34;;;;;;;1.65;1.20;;;6.20;99.90;;;;;;5010899;28;20113;-78
2023/11/02 03:31:17;;;;;;;2.63;1.40;;;6.20;99.90;;;;;;5007834;28;20090;-80
2023/11/02 03:34:11;;;;;;;3.10;1.42;;;6.40;99.90;;;;;;5011310;28;20025;-79
2023/11/02 03:36:40;;;;;;;2.75;1.10;;;6.40;99.90;;;;;;5021633;28;20486;-78
2023/11/02 03:39:14;;;;;;;2.80;1.30;;;6.50;99.90;;;;;;5019176;28;20080;-77
2023/11/02 03:42:23;;;;;;;3.30;1.50;;;6.50;99.90;;;;;;5012285;28;20033;-78
2023/11/02 03:44:55;;;;;;;2.65;1.48;;;6.50;99.90;;;;;;5008516;28;20037;-78
2023/11/02 03:47:34;;;;;;;3.70;1.30;;;6.50;99.90;;;;;;5018046;28;20401;-78
2023/11/02 03:50:29;;;;;;;3.10;1.50;;;6.50;99.90;;;;;;5011554;28;20525;-78
2023/11/02 03:53:05;;;;;;;3.40;1.45;;;6.50;99.90;;;;;;5002664;28;20022;-78
2023/11/02 03:55:36;;;;;;;1.55;1.45;;;6.50;99.90;;;;;;5018999;28;20037;-79
2023/11/02 03:58:09;;;;;;;4.28;1.55;;;6.50;99.90;;;;;;5019345;28;20025;-79
2023/11/02 04:01:00;;;;;;;3.63;1.75;;;6.50;99.90;;;;;;5015204;28;20026;-79
2023/11/02 04:03:30;;;;;;;2.05;1.55;;;6.50;99.90;;;;;;5005791;28;20030;-79
2023/11/02 04:06:03;;;;;;;2.40;1.45;;;6.40;99.90;;;;;;5012331;28;20710;-80
2023/11/02 04:08:36;;;;;;;2.35;1.40;;;6.40;99.90;;;;;;5018356;28;20089;-79
2023/11/02 04:11:13;;;;;;;2.63;1.50;;;6.40;99.90;;;;;;5009173;28;20032;-79
2023/11/02 04:14:00;;;;;;;2.08;1.25;;;6.30;99.90;;;;;;5011665;28;20029;-79
2023/11/02 04:16:27;;;;;;;2.70;1.50;;;6.30;99.90;;;;;;5014306;28;20033;-79
2023/11/02 04:18:53;;;;;;;2.85;1.10;;;6.30;99.90;;;;;;5015930;28;20379;-79
2023/11/02 04:21:19;;;;;;;4.82;1.30;;;6.30;99.90;;;;;;5004223;28;20117;-79
2023/11/02 04:23:45;;;;;;;2.58;1.35;;;6.30;99.90;;;;;;5011586;28;20049;-79
2023/11/02 04:26:11;;;;;;;1.27;1.10;;;6.30;99.90;;;;;;5012945;28;20036;-80
2023/11/02 04:28:36;;;;;;;2.22;1.40;;;6.30;99.90;;;;;;5018401;28;20037;-80
2023/11/02 04:31:02;;;;;;;4.43;1.55;;;6.30;99.90;;;;;;5013965;28;20053;-80
2023/11/02 04:33:28;;;;;;;1.67;1.40;;;6.30;99.90;;;;;;5007852;28;20125;-80
2023/11/02 04:35:55;;;;;;;1.60;1.45;;;6.30;99.90;;;;;;5006695;28;20156;-81
2023/11/02 04:38:39;;;;;;;1.52;1.40;;;6.30;99.90;;;;;;5018317;28;20091;-79
2023/11/02 04:41:05;;;;;;;3.08;1.63;;;6.30;99.90;;;;;;5010266;28;20125;-79
2023/11/02 04:43:31;;;;;;;1.55;1.45;;;6.30;99.90;;;;;;5011521;28;20030;-80
2023/11/02 04:45:57;;;;;;;1.30;1.20;;;6.30;99.90;;;;;;5011873;28;20033;-79
2023/11/02 04:48:22;;;;;;;2.45;1.50;;;6.20;99.90;;;;;;5012295;28;20054;-79
2023/11/02 04:50:55;;;;;;;1.60;1.13;;;6.20;99.90;;;;;;5008248;28;20041;-81
2023/11/02 04:53:24;;;;;;;5.40;2.10;;;6.10;99.90;;;;;;5006950;28;20064;-80
2023/11/02 04:55:50;;;;;;;3.17;1.70;;;6.20;99.90;;;;;;5013427;28;20026;-81
2023/11/02 04:58:16;;;;;;;1.90;1.70;;;6.20;99.90;;;;;;5009311;28;20034;-79
2023/11/02 05:00:42;;;;;;;3.00;1.85;;;6.20;99.90;;;;;;5011181;28;20025;-80
2023/11/02 05:03:08;;;;;;;5.13;2.15;;;6.30;99.90;;;;;;5010236;28;20198;-81
2023/11/02 05:05:34;;;;;;;6.03;2.38;;;6.30;99.90;;;;;;5015417;28;20659;-81
2023/11/02 05:08:03;;;;;;;3.17;2.60;;;6.30;99.90;;;;;;5017621;28;20042;-80
2023/11/02 05:10:28;;;;;;;3.97;2.63;;;6.40;99.90;;;;;;5013152;28;20053;-81
2023/11/02 05:12:54;;;;;;;2.83;2.30;;;6.40;99.90;;;;;;5015593;28;20069;-80
2023/11/02 05:15:20;;;;;;;4.53;2.67;;;6.40;99.90;;;;;;5012276;28;20052;-79
2023/11/02 05:17:45;;;;;;;4.85;3.10;;;6.40;99.90;;;;;;5017977;28;20058;-79
2023/11/02 05:20:11;;;;;;;3.08;2.50;;;6.50;99.90;;;;;;5005803;28;20050;-78
2023/11/02 05:22:37;;;;;;;3.92;3.15;;;6.50;99.90;;;;;;5012809;28;20048;-81
2023/11/02 05:25:04;;;;;;;2.97;2.67;;;6.50;99.90;;;;;;5006131;28;20490;-79
2023/11/02 05:27:30;;;;;;;5.13;2.95;;;6.50;99.90;;;;;;5021122;28;20044;-79
2023/11/02 05:29:56;;;;;;;3.45;3.08;;;6.50;99.90;;;;;;5008283;28;20499;-80
2023/11/02 05:32:22;;;;;;;4.55;2.50;;;6.50;99.90;;;;;;5002544;28;20030;-80
2023/11/02 05:34:48;;;;;;;3.53;2.58;;;6.50;99.90;;;;;;5011982;28;20564;-79
2023/11/02 05:37:14;;;;;;;5.85;3.10;;;6.60;99.90;;;;;;5012847;28;20072;-79
2023/11/02 05:39:39;;;;;;;4.30;3.10;;;6.60;99.90;;;;;;5006808;28;20101;-80
2023/11/02 05:42:06;;;;;;;4.82;3.38;;;6.60;99.90;;;;;;5009291;28;20038;-80
2023/11/02 05:44:32;;;;;;;3.20;2.63;;;6.70;99.90;;;;;;5005161;28;20037;-78
2023/11/02 05:46:58;;;;;;;4.97;3.08;;;6.80;99.90;;;;;;5009956;28;20512;-78
2023/11/02 05:49:24;;;;;;;6.43;2.72;;;6.90;99.90;;;;;;5013591;28;20037;-79
2023/11/02 05:51:50;;;;;;;4.95;3.17;;;6.80;99.90;;;;;;5010305;28;20042;-80
2023/11/02 05:54:16;;;;;;;3.67;2.78;;;6.90;99.90;;;;;;5009036;28;20031;-78
2023/11/02 05:56:41;;;;;;;4.07;3.03;;;6.80;99.90;;;;;;5015572;28;20030;-79
2023/11/02 05:59:07;;;;;;;4.25;2.97;;;6.80;99.90;;;;;;5019797;28;20046;-79
2023/11/02 06:01:33;;;;;;;5.00;2.75;;;6.90;99.90;;;;;;5006439;28;20394;-80
2023/11/02 06:04:02;;;;;;;4.03;2.70;;;6.90;99.90;;;;;;5008772;28;20026;-79
2023/11/02 06:06:28;;;;;;;5.88;2.65;;;6.90;99.90;;;;;;5011537;28;20027;-79
2023/11/02 06:08:54;;;;;;;6.68;2.67;;;7.00;99.90;;;;;;5010793;28;20093;-78
2023/11/02 06:11:19;;;;;;;6.20;2.65;;;7.00;99.90;;;;;;5010355;28;20053;-79
2023/11/02 06:13:45;;;;;;;4.78;2.15;;;7.10;99.90;;;;;;5011752;28;20088;-80
2023/11/02 06:16:11;;;;;;;7.82;3.72;;;7.10;99.90;;;;;;5012869;28;20064;-78
2023/11/02 06:18:37;;;;;;;4.38;2.67;;;7.20;99.90;;;;;;5017954;28;20030;-79
2023/11/02 06:21:03;;;;;;;2.55;2.10;;;7.20;99.90;;;;;;5011164;28;20034;-79
2023/11/02 06:23:29;;;;;;;3.97;2.42;;;7.20;99.90;;;;;;5012666;28;20038;-80
2023/11/02 06:25:55;;;;;;;3.15;2.22;;;7.20;99.90;;;;;;5015633;28;20648;-79
2023/11/02 06:28:21;;;;;;;4.35;2.30;;;7.20;99.90;;;;;;5017529;28;20109;-79
2023/11/02 06:30:46;;;;;;;3.28;2.50;;;7.20;99.90;;;;;;5014307;28;20049;-79
2023/11/02 06:33:23;;;;;;;4.28;2.13;;;7.30;99.90;;;;;;5010120;28;20096;-78
2023/11/02 06:35:48;;;;;;;3.50;2.45;;;7.30;99.90;;;;;;5010177;28;20057;-77
2023/11/02 06:38:14;;;;;;;4.55;2.40;;;7.30;99.90;;;;;;5014817;28;20034;-78
2023/11/02 06:40:41;;;;;;;4.18;2.40;;;7.30;99.90;;;;;;5010265;28;20046;-78
2023/11/02 06:43:07;;;;;;;3.03;2.30;;;7.40;99.90;;;;;;5010546;28;20018;-79
2023/11/02 06:45:32;;;;;;;2.55;2.35;;;7.40;99.90;;;;;;5007604;28;20018;-78
2023/11/02 06:47:58;;;;;;;3.58;2.05;;;7.40;99.90;;;;;;5016867;28;20033;-78
2023/11/02 06:50:24;;;;;;;3.70;2.22;;;7.40;99.90;;;;;;5005374;28;20030;-79
2023/11/02 06:52:49;;;;;;;3.90;2.55;;;7.50;99.90;;;;;;5012342;28;20049;-79
2023/11/02 06:55:15;;;;;;;3.45;2.10;;;7.50;99.90;;;;;;5009219;28;20041;-79
2023/11/02 06:57:41;;;;;;;4.72;2.70;;;7.50;99.90;;;;;;5011212;28;20026;-79
2023/11/02 07:00:09;;;;;;;3.67;2.22;;;7.50;99.90;;;;;;5006549;28;20091;-77
2023/11/02 07:02:36;;;;;;;5.18;2.50;;;7.50;99.90;;;;;;5007829;28;20026;-78
2023/11/02 07:05:04;;;;;;;4.88;2.30;;;7.60;99.90;;;;;;5012555;28;20034;-78
2023/11/02 07:07:30;;;;;;;3.53;2.20;;;7.60;99.90;;;;;;5011910;28;20048;-79
2023/11/02 07:09:56;;;;;;;6.43;2.38;;;7.60;99.90;;;;;;5003984;28;20053;-79
2023/11/02 07:12:22;;;;;;;4.65;2.30;;;7.60;99.90;;;;;;5010802;28;20038;-79
2023/11/02 07:14:48;;;;;;;3.67;2.10;;;7.60;99.90;;;;;;5004150;28;20054;-79
2023/11/02 07:17:15;;;;;;;2.47;1.92;;;7.60;99.90;;;;;;5016603;28;20740;-78
2023/11/02 07:19:41;;;;;;;4.35;2.10;;;7.50;99.90;;;;;;5010277;28;20038;-79
2023/11/02 07:22:07;;;;;;;3.03;2.20;;;7.50;99.90;;;;;;5003802;28;20059;-79
2023/11/02 07:24:33;;;;;;;3.13;2.00;;;7.50;99.90;;;;;;5011440;28;20034;-78
2023/11/02 07:26:59;;;;;;;4.28;2.05;;;7.50;99.90;;;;;;5009633;28;20030;-78
2023/11/02 07:29:24;;;;;;;4.20;2.50;;;7.60;99.90;;;;;;5009888;28;21366;-78
2023/11/02 07:31:50;;;;;;;6.20;2.90;;;7.60;99.90;;;;;;5007641;28;20069;-79
2023/11/02 07:34:16;;;;;;;4.65;2.58;;;7.60;99.90;;;;;;5005540;28;20026;-78
2023/11/02 07:36:42;;;;;;;3.55;2.70;;;7.70;99.90;;;;;;5009376;28;20057;-78
2023/11/02 07:39:08;;;;;;;6.47;2.60;;;7.80;99.90;;;;;;5016850;28;20494;-79
2023/11/02 07:41:34;;;;;;;8.48;2.80;;;7.90;99.90;;;;;;5010385;28;20053;-79
2023/11/02 07:44:00;;;;;;;4.95;2.67;;;8.00;99.90;;;;;;5009015;28;20030;-80
2023/11/02 07:46:25;;;;;;;4.97;2.50;;;8.00;99.90;;;;;;4994680;28;20034;-78
2023/11/02 07:48:52;;;;;;;3.63;2.90;;;8.00;99.90;;;;;;5014953;28;20053;-79
2023/11/02 07:51:18;;;;;;;5.65;2.75;;;8.00;99.90;;;;;;5007404;28;20038;-79
2023/11/02 07:53:44;;;;;;;3.78;2.33;;;8.00;99.90;;;;;;5011017;28;20444;-79
2023/11/02 07:56:10;;;;;;;3.42;2.10;;;8.00;99.90;;;;;;5008238;28;20113;-77
2023/11/02 07:58:36;;;;;;;5.07;2.53;;;8.00;99.90;;;;;;5020843;28;20033;-79
2023/11/02 08:01:05;;;;;;;3.60;2.63;;;8.00;99.90;;;;;;5007837;28;20033;-79
2023/11/02 08:03:31;;;;;;;4.72;2.65;;;8.00;99.90;;;;;;5003636;28;20030;-77
2023/11/02 08:05:57;;;;;;;4.07;2.53;;;8.00;99.90;;;;;;5012132;28;20041;-79
2023/11/02 08:08:24;;;;;;;3.88;2.30;;;8.10;99.90;;;;;;5013294;28;20101;-79
2023/11/02 08:11:08;;;;;;;4.75;2.20;;;8.10;99.90;;;;;;5007547;28;21018;-78
2023/11/02 08:13:34;;;;;;;4.10;2.50;;;8.20;99.90;;;;;;5006061;28;20057;-79
2023/11/02 08:16:00;;;;;;;3.35;2.13;;;8.30;99.90;;;;;;5006605;28;20065;-79
2023/11/02 08:18:26;;;;;;;2.95;2.13;;;8.30;99.90;;;;;;5004288;28;20508;-78
2023/11/02 08:20:52;;;;;;;3.45;2.35;;;8.40;99.90;;;;;;5003668;28;20038;-78
2023/11/02 08:23:17;;;;;;;4.03;2.45;;;8.40;99.90;;;;;;5002427;28;20033;-80
2023/11/02 08:25:46;;;;;;;2.42;2.13;;;8.40;99.90;;;;;;5020856;28;20028;-78
2023/11/02 08:28:12;;;;;;;3.97;2.15;;;8.50;99.90;;;;;;5011484;28;20042;-78
2023/11/02 08:30:38;;;;;;;4.30;2.45;;;8.60;99.90;;;;;;5004763;28;20061;-78
2023/11/02 08:33:03;;;;;;;2.88;1.92;;;8.60;99.90;;;;;;5004601;28;20064;-78
2023/11/02 08:35:29;;;;;;;2.78;2.08;;;8.60;99.90;;;;;;5007380;28;20103;-78
2023/11/02 08:37:55;;;;;;;3.88;2.30;;;8.60;99.90;;;;;;5003742;28;20083;-78
2023/11/02 08:40:21;;;;;;;2.40;2.20;;;8.60;99.90;;;;;;5005494;28;20034;-78
2023/11/02 08:42:48;;;;;;;3.92;2.72;;;8.50;99.90;;;;;;4999476;28;20101;-79
2023/11/02 08:45:14;;;;;;;3.58;2.50;;;8.50;99.90;;;;;;5003498;28;20018;-78
2023/11/02 08:47:41;;;;;;;4.22;2.55;;;8.60;99.90;;;;;;5005872;28;20026;-79
2023/11/02 08:50:08;;;;;;;3.28;2.45;;;8.60;99.90;;;;;;5006975;28;20086;-78
2023/11/02 08:52:34;;;;;;;3.38;2.45;;;8.60;99.90;;;;;;5000593;28;20034;-78
2023/11/02 08:55:00;;;;;;;3.78;2.38;;;8.60;99.90;;;;;;4995263;28;20030;-77
2023/11/02 08:57:27;;;;;;;3.38;2.95;;;8.70;99.90;;;;;;5000866;28;20030;-77
2023/11/02 08:59:53;;;;;;;3.45;3.00;;;8.70;99.90;;;;;;4996416;28;20042;-78
2023/11/02 09:02:18;;;;;;;3.67;2.25;;;8.80;99.90;;;;;;4998130;28;20030;-77
2023/11/02 09:04:44;;;;;;;2.80;2.50;;;8.70;99.90;;;;;;5001947;28;20056;-76
2023/11/02 09:07:10;;;;;;;5.10;2.55;;;8.70;99.90;;;;;;5007640;28;20033;-79
2023/11/02 09:09:35;;;;;;;3.88;2.83;;;8.80;99.90;;;;;;5007859;28;20053;-79
2023/11/02 09:12:01;;;;;;;3.53;2.50;;;8.80;99.90;;;;;;5012165;28;20079;-78
2023/11/02 09:14:27;;;;;;;5.05;3.58;;;8.90;99.90;;;;;;5006305;28;20112;-78
2023/11/02 09:16:53;;;;;;;3.28;2.70;;;9.00;99.90;;;;;;5009128;28;20049;-79
2023/11/02 09:19:18;;;;;;;3.88;2.60;;;9.00;99.90;;;;;;5012451;28;20096;-77
2023/11/02 09:21:44;;;;;;;4.00;2.95;;;9.00;99.90;;;;;;5002423;28;20082;-79
2023/11/02 09:24:10;;;;;;;4.70;2.70;;;9.10;99.90;;;;;;5009859;28;20037;-77
2023/11/02 09:27:10;;;;;;;3.20;2.90;;;9.10;99.90;;;;;;5000347;28;20803;-77
2023/11/02 09:32:57;;;;;;;2.55;1.05;;;9.20;99.90;;;;;;4906096;29;20048;-80
2023/11/02 09:35:24;;;;;;;3.97;1.10;;;9.30;99.90;;;;;;4955602;28;20134;-77
2023/11/02 09:37:50;;;;;;;4.60;2.00;;;9.30;99.90;;;;;;5008964;28;20135;-77
2023/11/02 09:40:16;;;;;;;3.30;2.70;;;9.30;99.90;;;;;;5003454;28;20109;-80
2023/11/02 09:42:44;;;;;;;2.30;2.10;;;9.30;99.90;;;;;;5001719;28;20104;-79
2023/11/02 09:45:10;;;;;;;2.60;1.90;;;9.40;99.90;;;;;;5004853;28;20487;-77
2023/11/02 09:47:38;;;;;;;4.38;2.28;;;9.40;99.90;;;;;;5003517;28;20058;-78
2023/11/02 09:50:07;;;;;;;3.72;3.03;;;9.40;99.90;;;;;;5004663;28;20037;-77
2023/11/02 09:52:33;;;;;;;3.75;3.03;;;9.40;99.90;;;;;;5002692;28;20133;-79
2023/11/02 09:55:00;;;;;;;3.20;2.90;;;9.50;99.90;;;;;;5003877;28;20026;-79
2023/11/02 09:57:26;;;;;;;3.33;2.40;;;9.50;99.90;;;;;;5006794;28;20029;-79
2023/11/02 09:59:52;;;;;;;3.00;2.55;;;9.50;99.90;;;;;;5012282;28;20554;-78
2023/11/02 10:02:19;;;;;;;3.75;3.05;;;9.50;99.90;;;;;;5003693;28;20045;-79
2023/11/02 10:04:45;;;;;;;3.05;2.38;;;9.50;99.90;;;;;;5022267;28;20038;-78
2023/11/02 10:07:12;;;;;;;3.83;2.58;;;9.50;99.90;;;;;;5022238;28;20088;-77
2023/11/02 10:09:38;;;;;;;4.22;3.13;;;9.50;99.90;;;;;;5013131;28;20106;-80
2023/11/02 10:12:05;;;;;;;4.95;2.80;;;9.50;99.90;;;;;;5005295;28;20034;-79
2023/11/02 10:14:32;;;;;;;5.18;3.33;;;9.50;99.90;;;;;;5003079;28;20049;-78
2023/11/02 10:17:02;;;;;;;5.05;3.20;;;9.40;99.90;;;;;;5003684;28;20042;-81
2023/11/02 10:19:31;;;;;;;5.15;3.10;;;9.40;99.90;;;;;;5006414;28;20037;-82
2023/11/02 10:21:57;;;;;;;6.55;3.05;;;9.40;99.90;;;;;;4999372;28;20030;-80
2023/11/02 10:24:30;;;;;;;6.13;3.25;;;9.40;99.90;;;;;;5000417;28;20026;-79
2023/11/02 10:29:59;;;;;;;3.58;3.03;;;9.50;99.90;;;;;;4994114;28;20461;-81
2023/11/02 10:32:25;;;;;;;4.80;3.40;;;9.40;99.90;;;;;;5011957;28;20049;-79
2023/11/02 10:34:54;;;;;;;5.13;3.20;;;9.40;99.90;;;;;;5010832;28;20053;-80
2023/11/02 10:37:34;;;;;;;3.85;2.80;;;9.30;99.90;;;;;;5020642;28;20041;-80
2023/11/02 10:40:00;;;;;;;4.07;3.35;;;9.30;99.90;;;;;;5003092;28;20026;-78
2023/11/02 10:42:27;;;;;;;6.95;3.22;;;9.20;99.90;;;;;;5001710;28;20037;-78
2023/11/02 10:44:56;;;;;;;4.03;2.80;;;9.20;99.90;;;;;;5003094;28;20077;-81
2023/11/02 10:47:30;;;;;;;6.07;3.55;;;9.10;99.90;;;;;;5017252;28;20037;-77
2023/11/02 10:49:58;;;;;;;6.85;3.08;;;9.00;99.90;;;;;;5004643;28;20033;-80
2023/11/02 10:52:29;;;;;;;4.63;2.92;;;9.00;99.90;;;;;;5005638;28;20688;-79
2023/11/02 10:55:08;;;;;;;4.13;3.35;;;9.00;99.90;;;;;;5006624;28;20034;-81
2023/11/02 10:57:36;;;;;;;6.80;3.58;;;9.00;99.90;;;;;;5008726;28;20129;-77
2023/11/02 11:00:07;;;;;;;6.40;3.90;;;9.00;99.90;;;;;;4999379;28;20771;-81
2023/11/02 11:02:36;;;;;;;4.50;3.70;;;9.00;99.90;;;;;;5013173;28;20450;-81
2023/11/02 11:05:05;;;;;;;4.60;3.90;;;9.00;99.90;;;;;;4993459;28;20100;-79
2023/11/02 11:07:39;;;;;;;3.35;3.00;;;9.00;99.90;;;;;;5011481;28;20030;-79
2023/11/02 11:10:06;;;;;;;3.10;2.80;;;9.00;99.90;;;;;;5009076;28;20056;-78
2023/11/02 11:12:36;;;;;;;3.83;3.35;;;8.90;99.90;;;;;;5000062;28;20578;-79
2023/11/02 11:15:02;;;;;;;5.18;3.42;;;8.90;99.90;;;;;;5008199;28;20248;-78
2023/11/02 11:17:29;;;;;;;4.00;3.60;;;8.80;99.90;;;;;;5019670;28;20038;-78
2023/11/02 11:19:55;;;;;;;4.45;3.65;;;8.80;99.90;;;;;;5017121;28;20708;-79
2023/11/02 11:22:27;;;;;;;4.95;4.10;;;8.80;99.90;;;;;;5009316;28;20085;-79
2023/11/02 11:25:04;;;;;;;3.80;3.17;;;8.80;99.90;;;;;;5014681;28;20026;-79
2023/11/02 11:27:32;;;;;;;6.43;3.88;;;8.80;99.90;;;;;;5018296;28;20111;-80
2023/11/02 11:29:59;;;;;;;5.88;3.58;;;8.90;99.90;;;;;;5002682;28;20567;-79
2023/11/02 11:32:25;;;;;;;5.45;3.60;;;8.90;99.90;;;;;;5006191;28;20673;-80
2023/11/02 11:34:53;;;;;;;5.97;3.33;;;8.90;99.90;;;;;;5004472;28;20038;-79
2023/11/02 11:37:47;;;;;;;4.03;3.63;;;8.90;99.90;;;;;;5015366;28;20036;-79
2023/11/02 11:40:19;;;;;;;7.63;4.13;;;8.90;99.90;;;;;;5010156;28;20076;-79
2023/11/02 11:43:12;;;;;;;3.90;3.50;;;8.90;99.90;;;;;;5007220;28;20053;-80
2023/11/02 11:45:55;;;;;;;5.30;3.35;;;8.90;99.90;;;;;;5005145;28;20038;-81
2023/11/02 11:48:36;;;;;;;5.22;4.07;;;9.00;99.90;;;;;;5002427;28;20038;-78
2023/11/02 11:51:31;;;;;;;6.15;3.50;;;9.00;99.90;;;;;;5003643;28;20038;-79
2023/11/02 11:54:14;;;;;;;4.72;3.38;;;9.00;99.90;;;;;;5001936;28;20101;-82
2023/11/02 11:56:41;;;;;;;5.43;3.20;;;9.00;99.90;;;;;;5006552;28;20097;-80
2023/11/02 11:59:07;;;;;;;3.53;3.10;;;9.10;99.90;;;;;;5002558;28;20488;-80
2023/11/02 12:01:33;;;;;;;7.38;3.65;;;9.20;99.90;;;;;;5007395;28;20088;-79
2023/11/02 12:03:58;;;;;;;4.22;3.17;;;9.10;99.90;;;;;;5007638;28;20053;-80
2023/11/02 12:06:45;;;;;;;5.90;4.07;;;9.00;99.90;;;;;;5014343;28;20091;-80
2023/11/02 12:09:16;;;;;;;5.97;3.92;;;9.10;99.90;;;;;;5005996;28;20030;-80
2023/11/02 12:11:42;;;;;;;5.50;3.90;;;9.10;99.90;;;;;;5009199;28;20117;-80
2023/11/02 12:14:14;;;;;;;4.70;3.88;;;9.10;99.90;;;;;;4995645;28;20038;-81
2023/11/02 12:16:41;;;;;;;4.30;3.90;;;9.20;99.90;;;;;;5006610;28;20025;-81
2023/11/02 12:19:08;;;;;;;5.25;3.72;;;9.20;99.90;;;;;;4998776;28;20056;-79
2023/11/02 12:21:35;;;;;;;4.85;3.53;;;9.30;99.90;;;;;;4996153;28;20037;-79
2023/11/02 12:24:01;;;;;;;4.03;3.40;;;9.30;99.90;;;;;;4989005;28;20033;-80
2023/11/02 12:26:27;;;;;;;5.07;3.60;;;9.30;99.90;;;;;;5008401;28;20379;-80
2023/11/02 12:29:16;;;;;;;5.05;3.60;;;9.30;99.90;;;;;;5003297;28;20203;-79
2023/11/02 12:31:42;;;;;;;4.13;3.58;;;9.40;99.90;;;;;;5005903;28;20048;-81
2023/11/02 12:34:10;;;;;;;4.25;3.28;;;9.40;99.90;;;;;;5001435;28;20026;-81
2023/11/02 12:36:38;;;;;;;4.18;3.70;;;9.40;99.90;;;;;;5002635;28;20050;-79
2023/11/02 12:39:15;;;;;;;5.80;3.40;;;9.50;99.90;;;;;;5009021;28;20032;-81
2023/11/02 12:41:42;;;;;;;5.75;3.25;;;9.50;99.90;;;;;;5010209;28;20136;-80
2023/11/02 12:44:12;;;;;;;3.08;2.78;;;9.50;99.90;;;;;;5011465;28;20033;-81
2023/11/02 12:46:42;;;;;;;4.30;3.33;;;9.50;99.90;;;;;;5007301;28;20030;-80
2023/11/02 12:49:22;;;;;;;4.28;2.95;;;9.60;99.90;;;;;;5013119;28;20040;-80
2023/11/02 12:51:54;;;;;;;4.18;3.55;;;9.60;99.90;;;;;;5011488;28;20044;-81
2023/11/02 12:54:21;;;;;;;5.03;3.47;;;9.60;99.90;;;;;;5006210;28;20044;-80
2023/11/02 12:56:53;;;;;;;5.18;3.50;;;9.70;99.90;;;;;;5006698;28;20068;-80
2023/11/02 12:59:22;;;;;;;4.63;4.10;;;9.70;99.90;;;;;;5005244;28;20030;-81
2023/11/02 13:01:54;;;;;;;3.30;3.00;;;9.70;99.90;;;;;;5011520;28;20036;-81
2023/11/02 13:04:28;;;;;;;4.22;3.08;;;9.70;99.90;;;;;;5006780;28;20095;-78
2023/11/02 13:06:57;;;;;;;3.00;2.53;;;9.60;99.90;;;;;;5005229;28;20022;-80
2023/11/02 13:09:26;;;;;;;2.65;2.45;;;9.70;99.90;;;;;;5009401;28;20413;-81
2023/11/02 13:11:54;;;;;;;4.00;2.35;;;9.70;99.90;;;;;;5003356;28;20030;-82
2023/11/02 13:14:23;;;;;;;3.17;2.47;;;9.70;99.90;;;;;;4999383;28;20061;-82
2023/11/02 13:16:50;;;;;;;3.05;2.60;;;9.60;99.90;;;;;;5003957;28;20030;-81
2023/11/02 13:19:18;;;;;;;3.33;2.40;;;9.60;99.90;;;;;;5000196;28;20033;-82
2023/11/02 13:21:44;;;;;;;2.42;2.22;;;9.60;99.90;;;;;;5006055;28;20092;-85